x

North Hecate Strait (46183) Wave Buoy

5:00pm - Wed 22nd Oct 2014 All times are PDT. -7 hours from GMT.

  • Sig Wave height 6.6ft
  • Peak Period 7s
  • Wind
    27mph, 34mph gusts
  • Sea Temp 51°f
  • Air Temp 50°f
  • Sea Pressure 992.5mb
  • North Hecate Strait
  • North Hecate Strait

More Historic Weather Station data

Upgrade to MSW Pro to gain access to the past 30 days of data for over 8000 Wavebouys and Weather Stations around the globe.

Join Pro

Comparision Forecast

View Surf forecast
   
Wed 10/22 5:00pm 6.5ft 7s 27 34 mph 992.5mb 51f 50f
4:00pm 7ft 6s 31 38 mph 992.6mb 52f 50f
3:00pm 4.5ft 7s 27 36 mph 992.7mb 52f 50f
2:00pm 4.5ft 8s 20 27 mph 993.7mb 52f 49f
1:00pm 4.5ft 7s 20 22 mph 994.7mb 52f 49f
12:00pm 6ft 6s 13 18 mph 995.5mb 52f 48f
11:00am  -   -  25
mph
995.8mb - 49f
9:00am 5.5ft 5s 20 27 mph 995.1mb 51f 51f
8:00am 5ft 6s 22 25 mph 994.9mb 51f 51f
7:00am 4.5ft 7s 25 29 mph 994.6mb 51f 51f
6:00am 4.5ft 8s 18 20 mph 994.3mb 51f 52f
5:00am 5ft 9s 18 20 mph 994.1mb 51f 52f
4:00am 5ft 9s 18 22 mph 993.4mb 51f 52f
3:00am 5.5ft 8s 20 25 mph 992.8mb 51f 52f
2:00am 5.5ft 9s 22 27 mph 992.2mb 51f 53f
1:00am 6ft 8s 22 27 mph 991.8mb 51f 53f
12:00am 6ft 8s 22 27 mph 991.6mb 51f 52f
Tue 10/21 11:00pm 6ft 9s 25 29 mph 991.6mb 51f 52f
10:00pm  -   -  25
mph
- - -
9:00pm 8ft 9s 22 29 mph 990.9mb 51f 51f
8:00pm 8ft 7s 29 40 mph 990.6mb 51f 52f
7:00pm 8ft 9s 27 34 mph 990.9mb 50f 52f
6:00pm 7.5ft 10s 29 34 mph 991.3mb 51f 53f
5:00pm 8ft 10s 25 29 mph 991.2mb 51f 52f
4:00pm 8ft 9s 27 34 mph 991.1mb 51f 53f
3:00pm 9ft 8s 34 40 mph 990.1mb 52f 53f
2:00pm 10ft 10s 27 31 mph 990.3mb 52f 53f
1:00pm 11ft 9s 36 45 mph 989.3mb 52f 52f
12:00pm 10ft 9s 34 40 mph 988.9mb 52f 53f
11:00am 9.5ft 8s 25 31 mph 988.6mb 51f 53f
10:00am 9ft 8s 31 40 mph 989mb 51f 54f
8:00am  -   -  27
mph
989.5mb - 53f
7:00am 7.5ft 8s 31 38 mph 989.1mb 50f 53f
6:00am 9ft 7s 27 36 mph 990.6mb 50f 50f
5:00am 9ft 7s 36 47 mph 991.7mb 50f 49f
4:00am 7ft 7s 31 38 mph 991.6mb 50f 53f
3:00am 7ft 6s 31 40 mph 993mb 50f 53f
1:00am 5ft 9s 27 36 mph 995.1mb 51f 53f
12:00am 4.5ft 9s 27 31 mph 995.8mb 51f 53f
Mon 10/20 11:00pm 4.5ft 9s 22 29 mph 996.7mb 51f 53f
10:00pm 3.5ft 9s 20 25 mph 997.4mb 50f 53f
9:00pm 3.5ft 10s 16 20 mph 997.9mb 50f 52f
8:00pm 3.5ft 9s 13 16 mph 998.2mb 50f 51f
7:00pm 4ft 10s 11 13 mph 998.4mb 51f 52f
6:00pm 4.5ft 10s 11 13 mph 998.6mb 51f 51f
5:00pm 4.5ft 10s 11
mph
998.4mb 50f 52f
4:00pm 4ft 10s 9
mph
997.6mb 50f 51f
3:00pm 4.5ft 10s 7 9 mph 996.9mb 50f 51f
2:00pm 4.5ft 10s 7 9 mph 996.6mb 50f 51f
1:00pm 5ft 10s 9
mph
996.9mb 50f 51f
12:00pm 5ft 10s 7 9 mph 997mb 50f 51f
11:00am 6ft 10s 9 11 mph 996.6mb 50f 51f
10:00am 6ft 10s 11 13 mph 996.5mb 50f 52f
9:00am 6ft 10s 16 18 mph 996mb 50f 52f
8:00am 6ft 11s 18 20 mph 995.5mb 50f 52f
7:00am 6ft 11s 13 18 mph 995.6mb 50f 52f
6:00am 7ft 11s 16 18 mph 995mb 50f 52f
5:00am 7ft 11s 18 20 mph 994.6mb 50f 53f
4:00am 16.5ft  -  20
mph
994mb 50f 53f
3:00am 8ft 11s 20 25 mph 993.5mb 50f 53f
2:00am 9ft 11s 25 29 mph 993.1mb 50f 53f
1:00am 9.5ft 11s 27 34 mph 991.9mb 50f 54f
12:00am 8.5ft 11s 29 34 mph 991.5mb 50f 54f
Sun 10/19 11:00pm 8ft 10s 27 34 mph 991.6mb 51f 54f
10:00pm 7.5ft 11s 27 31 mph 991.5mb 51f 54f
7:00pm 8ft 12s 20 25 mph 992.1mb 51f 54f
6:00pm 7.5ft 12s 22 27 mph 991.8mb 51f 54f
5:00pm 9ft 12s 25 29 mph 991.3mb 51f 54f
4:00pm 9.5ft 12s 20 25 mph 990.8mb 51f 54f
3:00pm 10ft 12s 18 22 mph 990.1mb 51f 54f
2:00pm 12.5ft 12s 20 25 mph 988.7mb 52f 53f
1:00pm 12ft 12s 25 29 mph 987.4mb 52f 54f
12:00pm 13.5ft 12s 29 34 mph 986.1mb 52f 55f
11:00am 15ft 12s 29 34 mph 985mb 52f 55f
10:00am  -   -  29
mph
- - -
9:00am 18.5ft 10s 36 45 mph 983mb 50f 55f
8:00am 18.5ft 10s 38 47 mph 981.6mb 50f 55f
7:00am  -   -  45
mph
981.4mb - 55f
6:00am  -   -  36
mph
983.2mb 50f 54f
5:00am 8.5ft 11s 22 27 mph 986.5mb 50f 53f
4:00am 7ft 10s 22 31 mph 989mb 50f 53f
3:00am 7ft 10s 20 27 mph 990.8mb 50f 53f